Time;durP1;ratioP1;P1;durP2;ratioP2;P2;SDS_P1;SDS_P2;PMS_P1;PMS_P2;Temp;Humidity;BMP_temperature;BMP_pressure;BME280_temperature;BME280_humidity;BME280_pressure;Samples;Min_cycle;Max_cycle;Signal;HPM_P1;HPM_P2
2022/12/08 00:01:05;;;;;;;22.38;13.85;;;;;;;;;;5034064;28;20513;-89
2022/12/08 00:03:34;;;;;;;21.02;12.05;;;;;;;;;;5033872;28;20060;-89
2022/12/08 00:11:34;;;;;;;20.42;12.77;;;;;;;;;;5033974;28;20052;-89
2022/12/08 00:14:01;;;;;;;28.13;14.50;;;;;;;;;;5033113;28;20050;-89
2022/12/08 00:16:28;;;;;;;28.50;14.18;;;;;;;;;;5033168;28;20056;-89
2022/12/08 00:18:56;;;;;;;18.75;11.77;;;;;;;;;;5033508;28;20489;-90
2022/12/08 00:21:23;;;;;;;19.92;12.60;;;;;;;;;;5032930;28;20056;-89
2022/12/08 00:23:50;;;;;;;20.33;13.02;;;;;;;;;;5033592;28;20111;-90
2022/12/08 00:26:17;;;;;;;22.35;13.38;;;;;;;;;;5032938;28;20050;-89
2022/12/08 00:28:44;;;;;;;28.67;14.65;;;;;;;;;;5033471;28;20390;-90
2022/12/08 00:31:12;;;;;;;20.75;12.02;;;;;;;;;;5032580;28;20041;-89
2022/12/08 00:33:39;;;;;;;25.45;14.52;;;;;;;;;;5032805;28;20072;-89
2022/12/08 00:36:11;;;;;;;19.63;13.32;;;;;;;;;;5032079;28;20053;-89
2022/12/08 00:38:39;;;;;;;21.27;11.25;;;;;;;;;;5032766;28;20045;-89
2022/12/08 00:41:08;;;;;;;18.65;11.18;;;;;;;;;;5033415;28;20133;-90
2022/12/08 00:43:35;;;;;;;15.07;10.30;;;;;;;;;;5033307;28;20057;-89
2022/12/08 00:46:05;;;;;;;15.10;9.55;;;;;;;;;;5033218;28;20049;-89
2022/12/08 00:48:33;;;;;;;18.20;10.57;;;;;;;;;;5033481;28;20041;-89
2022/12/08 00:51:00;;;;;;;13.45;9.15;;;;;;;;;;5032506;28;20060;-89
2022/12/08 00:53:27;;;;;;;15.65;8.68;;;;;;;;;;5032590;28;20068;-89
2022/12/08 00:55:54;;;;;;;15.38;8.63;;;;;;;;;;5032199;28;20054;-89
2022/12/08 00:58:21;;;;;;;13.68;9.32;;;;;;;;;;5033505;28;20053;-89
2022/12/08 01:00:49;;;;;;;13.73;8.50;;;;;;;;;;5032267;28;20055;-89
2022/12/08 01:03:16;;;;;;;13.30;8.00;;;;;;;;;;5033451;28;20053;-89
2022/12/08 01:05:43;;;;;;;14.52;9.15;;;;;;;;;;5033288;28;20053;-90
2022/12/08 01:08:10;;;;;;;11.13;8.77;;;;;;;;;;5033047;28;20052;-90
2022/12/08 01:10:38;;;;;;;13.38;9.35;;;;;;;;;;5032285;28;20140;-89
2022/12/08 01:13:05;;;;;;;15.90;10.63;;;;;;;;;;5032304;28;20046;-90
2022/12/08 01:15:33;;;;;;;14.45;10.35;;;;;;;;;;5032976;28;20050;-90
2022/12/08 01:18:00;;;;;;;17.35;9.25;;;;;;;;;;5033285;28;20053;-89
2022/12/08 01:20:30;;;;;;;13.98;8.82;;;;;;;;;;5032110;28;20041;-89
2022/12/08 01:22:57;;;;;;;11.73;8.20;;;;;;;;;;5032920;28;20057;-89
2022/12/08 01:25:24;;;;;;;10.35;7.35;;;;;;;;;;5033073;28;20053;-89
2022/12/08 01:27:52;;;;;;;9.98;7.63;;;;;;;;;;5032124;28;20045;-90
2022/12/08 01:30:20;;;;;;;13.90;7.93;;;;;;;;;;5032111;28;20505;-89
2022/12/08 01:32:47;;;;;;;10.93;6.78;;;;;;;;;;5033135;28;20050;-90
2022/12/08 01:35:15;;;;;;;10.65;7.63;;;;;;;;;;5033054;28;20045;-90
2022/12/08 01:37:42;;;;;;;10.68;8.32;;;;;;;;;;5033098;28;20055;-89
2022/12/08 01:40:09;;;;;;;5.70;4.97;;;;;;;;;;5032254;28;20042;-89
2022/12/08 01:42:37;;;;;;;8.25;6.20;;;;;;;;;;5033174;28;20049;-89
2022/12/08 01:45:06;;;;;;;10.02;6.95;;;;;;;;;;5033191;28;20054;-89
2022/12/08 01:47:37;;;;;;;7.45;5.57;;;;;;;;;;5035002;28;20045;-89
2022/12/08 01:50:06;;;;;;;8.00;5.80;;;;;;;;;;5035243;28;20053;-89
2022/12/08 01:52:37;;;;;;;4.72;4.32;;;;;;;;;;5035350;28;20085;-90
2022/12/08 01:55:08;;;;;;;5.75;5.25;;;;;;;;;;5036314;28;20053;-89
2022/12/08 01:57:55;;;;;;;6.43;4.93;;;;;;;;;;5035424;28;20414;-89
2022/12/08 02:00:23;;;;;;;5.57;4.50;;;;;;;;;;5035936;28;20045;-89
2022/12/08 02:03:10;;;;;;;5.10;4.63;;;;;;;;;;5035155;28;20059;-90
2022/12/08 02:05:39;;;;;;;5.22;4.55;;;;;;;;;;5036211;28;20557;-89
2022/12/08 02:08:07;;;;;;;5.10;4.60;;;;;;;;;;5035045;28;20512;-89
2022/12/08 02:10:37;;;;;;;4.88;4.40;;;;;;;;;;5035295;28;20053;-89
2022/12/08 02:13:05;;;;;;;3.75;3.45;;;;;;;;;;5036715;28;20053;-89
2022/12/08 02:15:39;;;;;;;4.32;3.95;;;;;;;;;;5034990;28;20664;-90
2022/12/08 02:18:16;;;;;;;2.80;2.60;;;;;;;;;;5035775;28;20049;-89
2022/12/08 02:21:01;;;;;;;2.45;2.30;;;;;;;;;;5035446;28;20045;-89
2022/12/08 02:23:43;;;;;;;2.72;2.53;;;;;;;;;;5034805;28;20057;-89
2022/12/08 02:26:13;;;;;;;2.13;2.03;;;;;;;;;;5034782;28;20049;-89
2022/12/08 02:28:59;;;;;;;2.50;2.40;;;;;;;;;;5035680;28;20060;-89
2022/12/08 02:31:26;;;;;;;2.65;2.45;;;;;;;;;;5035867;28;20363;-89
2022/12/08 02:34:03;;;;;;;2.50;2.40;;;;;;;;;;5034788;28;20128;-89
2022/12/08 02:36:46;;;;;;;2.38;2.25;;;;;;;;;;5034977;28;20163;-89
2022/12/08 02:39:32;;;;;;;2.38;2.28;;;;;;;;;;5035371;28;20052;-89
2022/12/08 02:42:05;;;;;;;2.97;2.78;;;;;;;;;;5035429;28;20053;-89
2022/12/08 02:44:55;;;;;;;2.80;2.63;;;;;;;;;;5034783;28;20053;-90
2022/12/08 02:47:23;;;;;;;3.75;2.65;;;;;;;;;;5027375;28;20051;-89
2022/12/08 02:49:51;;;;;;;3.10;2.80;;;;;;;;;;5034545;28;20414;-90
2022/12/08 02:52:18;;;;;;;2.38;2.28;;;;;;;;;;5034562;28;20479;-89
2022/12/08 02:54:51;;;;;;;2.45;2.35;;;;;;;;;;5034300;28;20057;-89
2022/12/08 02:57:37;;;;;;;2.97;2.78;;;;;;;;;;5034393;28;20067;-89
2022/12/08 03:00:10;;;;;;;2.45;2.30;;;;;;;;;;5034246;28;20045;-89
2022/12/08 03:02:53;;;;;;;2.88;2.10;;;;;;;;;;5034248;28;20128;-89
2022/12/08 03:05:39;;;;;;;2.20;2.10;;;;;;;;;;5034197;28;20379;-89
2022/12/08 03:08:06;;;;;;;1.90;1.80;;;;;;;;;;5033851;28;20520;-89
2022/12/08 03:10:39;;;;;;;2.20;2.10;;;;;;;;;;5033810;28;20049;-89
2022/12/08 03:13:06;;;;;;;;;;;;;;;;;;5035296;28;20434;-89
2022/12/08 03:15:34;;;;;;;2.10;1.90;;;;;;;;;;5033980;28;19928;-89
2022/12/08 03:18:03;;;;;;;2.45;2.00;;;;;;;;;;5033712;28;20057;-89
2022/12/08 03:20:32;;;;;;;1.83;1.73;;;;;;;;;;5033896;28;20049;-89
2022/12/08 03:23:01;;;;;;;1.90;1.80;;;;;;;;;;5034552;28;20057;-89
2022/12/08 03:25:31;;;;;;;2.05;1.95;;;;;;;;;;5034791;28;20057;-89
2022/12/08 03:27:59;;;;;;;2.13;2.03;;;;;;;;;;5033326;28;20092;-89
2022/12/08 03:30:28;;;;;;;2.10;2.00;;;;;;;;;;5034409;28;20053;-89
2022/12/08 03:33:02;;;;;;;2.00;1.90;;;;;;;;;;5034426;28;20061;-89
2022/12/08 03:35:30;;;;;;;2.08;1.98;;;;;;;;;;5033512;28;20046;-89
2022/12/08 03:38:06;;;;;;;2.20;2.10;;;;;;;;;;5033338;28;20056;-89
2022/12/08 03:40:33;;;;;;;1.70;1.60;;;;;;;;;;5033372;28;20049;-89
2022/12/08 03:43:00;;;;;;;2.30;2.20;;;;;;;;;;5034389;28;20076;-89
2022/12/08 03:45:28;;;;;;;2.28;2.08;;;;;;;;;;5032812;28;20046;-89
2022/12/08 03:47:55;;;;;;;2.42;2.22;;;;;;;;;;5033155;28;20045;-89
2022/12/08 03:50:22;;;;;;;2.40;2.30;;;;;;;;;;5033472;28;20148;-89
2022/12/08 03:52:50;;;;;;;2.60;2.50;;;;;;;;;;5033182;28;20045;-89
2022/12/08 03:55:17;;;;;;;2.45;2.25;;;;;;;;;;5034284;28;20133;-89
2022/12/08 03:57:45;;;;;;;2.55;2.38;;;;;;;;;;5033193;28;20050;-88
2022/12/08 04:00:14;;;;;;;2.53;2.42;;;;;;;;;;5033148;28;20065;-87
2022/12/08 04:02:41;;;;;;;2.78;2.20;;;;;;;;;;5033087;28;20046;-89
2022/12/08 04:05:08;;;;;;;2.95;2.55;;;;;;;;;;5033056;28;20132;-88
2022/12/08 04:07:36;;;;;;;2.33;2.22;;;;;;;;;;5034252;28;20549;-89
2022/12/08 04:10:04;;;;;;;2.63;2.53;;;;;;;;;;5033031;28;20103;-89
2022/12/08 04:12:31;;;;;;;3.70;2.67;;;;;;;;;;5033264;28;20099;-89
2022/12/08 04:14:59;;;;;;;3.30;3.00;;;;;;;;;;5033744;28;20494;-88
2022/12/08 04:17:26;;;;;;;2.80;2.60;;;;;;;;;;5032869;28;20061;-89
2022/12/08 04:19:53;;;;;;;3.30;3.10;;;;;;;;;;5032571;28;20052;-89
2022/12/08 04:22:20;;;;;;;2.78;2.67;;;;;;;;;;5033053;28;20052;-89
2022/12/08 04:24:48;;;;;;;3.17;2.97;;;;;;;;;;5033171;28;20127;-89
2022/12/08 04:27:15;;;;;;;3.70;3.47;;;;;;;;;;5033790;28;20049;-89
2022/12/08 04:29:42;;;;;;;3.83;3.53;;;;;;;;;;5032769;28;20064;-89
2022/12/08 04:32:09;;;;;;;3.67;3.38;;;;;;;;;;5032703;28;20061;-88
2022/12/08 04:34:36;;;;;;;3.85;3.55;;;;;;;;;;5032700;28;20441;-89
2022/12/08 04:37:04;;;;;;;3.83;3.63;;;;;;;;;;5032610;28;20065;-89
2022/12/08 04:39:31;;;;;;;3.78;3.58;;;;;;;;;;5033954;28;20048;-88
2022/12/08 04:41:58;;;;;;;4.10;3.70;;;;;;;;;;5033111;28;20050;-88
2022/12/08 04:44:25;;;;;;;3.95;3.65;;;;;;;;;;5033685;28;20045;-89
2022/12/08 04:46:52;;;;;;;4.20;3.90;;;;;;;;;;5032514;28;20417;-89
2022/12/08 04:49:20;;;;;;;5.18;3.80;;;;;;;;;;5033407;28;20049;-89
2022/12/08 04:51:47;;;;;;;4.85;4.15;;;;;;;;;;5033520;28;20049;-88
2022/12/08 04:54:14;;;;;;;5.15;4.63;;;;;;;;;;5033461;28;20042;-89
2022/12/08 04:56:41;;;;;;;5.45;4.95;;;;;;;;;;5033410;28;20046;-88
2022/12/08 04:59:08;;;;;;;14.30;10.13;;;;;;;;;;5032372;28;20060;-89
2022/12/08 05:01:36;;;;;;;17.25;12.05;;;;;;;;;;5032375;28;20049;-89
2022/12/08 05:04:03;;;;;;;22.05;13.65;;;;;;;;;;5032115;28;20053;-89
2022/12/08 05:06:30;;;;;;;11.20;9.52;;;;;;;;;;5033332;28;20405;-88
2022/12/08 05:08:58;;;;;;;9.98;7.72;;;;;;;;;;5032142;28;20099;-89
2022/12/08 05:11:25;;;;;;;6.68;5.68;;;;;;;;;;5032203;28;20056;-89
2022/12/08 05:13:52;;;;;;;5.10;4.70;;;;;;;;;;5032462;28;20045;-89
2022/12/08 05:16:19;;;;;;;6.10;4.70;;;;;;;;;;5032870;28;20057;-89
2022/12/08 05:18:46;;;;;;;5.38;4.97;;;;;;;;;;5032345;28;20057;-88
2022/12/08 05:21:14;;;;;;;11.75;5.40;;;;;;;;;;5032100;28;20048;-88
2022/12/08 05:23:43;;;;;;;8.23;5.80;;;;;;;;;;5035078;28;20065;-89
2022/12/08 05:26:10;;;;;;;5.90;5.35;;;;;;;;;;5035483;28;20053;-89
2022/12/08 05:28:37;;;;;;;12.75;5.53;;;;;;;;;;5036825;28;20060;-89
2022/12/08 05:31:09;;;;;;;10.40;6.60;;;;;;;;;;5036048;28;20449;-89
2022/12/08 05:33:36;;;;;;;11.45;8.43;;;;;;;;;;5035918;28;20087;-89
2022/12/08 05:36:03;;;;;;;10.68;8.30;;;;;;;;;;5036720;28;20076;-89
2022/12/08 05:38:30;;;;;;;10.35;7.45;;;;;;;;;;5035907;28;20049;-89
2022/12/08 05:40:58;;;;;;;13.13;6.70;;;;;;;;;;5035600;28;20504;-88
2022/12/08 05:43:25;;;;;;;10.23;6.35;;;;;;;;;;5035518;28;20477;-89
2022/12/08 05:45:52;;;;;;;19.33;8.20;;;;;;;;;;5035266;28;20410;-89
2022/12/08 05:48:20;;;;;;;15.40;7.60;;;;;;;;;;5036715;28;20052;-89
2022/12/08 05:50:48;;;;;;;13.38;7.43;;;;;;;;;;5035294;28;20493;-89
2022/12/08 05:53:15;;;;;;;15.55;8.23;;;;;;;;;;5036547;28;20052;-89
2022/12/08 05:55:43;;;;;;;14.88;9.77;;;;;;;;;;5035591;28;20061;-89
2022/12/08 05:58:14;;;;;;;15.60;9.48;;;;;;;;;;5036520;28;20052;-89
2022/12/08 06:00:42;;;;;;;19.85;9.55;;;;;;;;;;5036628;28;20050;-89
2022/12/08 06:03:13;;;;;;;18.45;9.73;;;;;;;;;;5035387;28;20052;-88
2022/12/08 06:05:41;;;;;;;15.65;10.35;;;;;;;;;;5036346;28;20060;-88
2022/12/08 06:08:08;;;;;;;12.32;10.13;;;;;;;;;;5036073;28;20046;-88
2022/12/08 06:10:37;;;;;;;14.48;10.25;;;;;;;;;;5035213;28;20109;-89
2022/12/08 06:13:05;;;;;;;14.57;9.82;;;;;;;;;;5035474;28;20049;-88
2022/12/08 06:15:33;;;;;;;17.65;10.77;;;;;;;;;;5035176;28;20128;-89
2022/12/08 06:18:01;;;;;;;20.65;11.27;;;;;;;;;;5035910;28;20045;-89
2022/12/08 06:20:28;;;;;;;13.45;9.90;;;;;;;;;;5035259;28;20105;-89
2022/12/08 06:22:58;;;;;;;11.65;8.55;;;;;;;;;;5034766;28;20096;-89
2022/12/08 06:25:25;;;;;;;14.75;9.20;;;;;;;;;;5034893;28;20504;-88
2022/12/08 06:27:53;;;;;;;15.25;10.85;;;;;;;;;;5035037;28;20057;-89
2022/12/08 06:30:20;;;;;;;18.73;12.43;;;;;;;;;;5034802;28;20049;-89
2022/12/08 06:32:47;;;;;;;25.05;14.05;;;;;;;;;;5034675;28;20136;-89
2022/12/08 06:35:14;;;;;;;16.70;12.25;;;;;;;;;;5033770;28;20406;-89
2022/12/08 06:37:41;;;;;;;25.48;13.43;;;;;;;;;;5035787;28;20387;-89
2022/12/08 06:40:09;;;;;;;21.50;13.02;;;;;;;;;;5035589;28;20057;-89
2022/12/08 06:42:42;;;;;;;19.65;12.45;;;;;;;;;;5034376;28;20046;-89
2022/12/08 06:45:10;;;;;;;50.05;26.55;;;;;;;;;;5034330;28;20132;-89
2022/12/08 06:47:37;;;;;;;90.53;36.63;;;;;;;;;;5034443;28;20049;-89
2022/12/08 06:50:05;;;;;;;145.70;75.05;;;;;;;;;;5035166;28;20069;-88
2022/12/08 06:52:33;;;;;;;82.13;39.92;;;;;;;;;;5035311;28;20060;-89
2022/12/08 06:55:07;;;;;;;146.73;83.82;;;;;;;;;;5034322;28;20053;-88
2022/12/08 06:57:34;;;;;;;49.17;28.60;;;;;;;;;;5034382;28;20057;-89
2022/12/08 07:00:02;;;;;;;17.90;13.40;;;;;;;;;;5034096;28;20049;-88
2022/12/08 07:02:30;;;;;;;28.83;14.23;;;;;;;;;;5034143;28;20053;-89
2022/12/08 07:04:57;;;;;;;29.05;13.02;;;;;;;;;;5035081;28;20120;-89
2022/12/08 07:07:24;;;;;;;32.75;15.25;;;;;;;;;;5035292;28;20136;-89
2022/12/08 07:09:51;;;;;;;25.73;16.08;;;;;;;;;;5033756;28;20114;-88
2022/12/08 07:12:19;;;;;;;16.40;12.45;;;;;;;;;;5034062;28;20057;-89
2022/12/08 07:14:46;;;;;;;19.50;14.10;;;;;;;;;;5033838;28;20505;-88
2022/12/08 07:17:13;;;;;;;17.83;12.95;;;;;;;;;;5034038;28;20488;-89
2022/12/08 07:19:41;;;;;;;18.02;12.65;;;;;;;;;;5033867;28;20389;-89
2022/12/08 07:22:08;;;;;;;29.17;14.95;;;;;;;;;;5033718;28;20049;-89
2022/12/08 07:24:35;;;;;;;32.47;15.20;;;;;;;;;;5033455;28;20412;-88
2022/12/08 07:27:02;;;;;;;23.83;14.23;;;;;;;;;;5034458;28;20049;-89
2022/12/08 07:29:30;;;;;;;16.83;12.43;;;;;;;;;;5034919;28;20046;-89
2022/12/08 07:31:57;;;;;;;24.98;12.57;;;;;;;;;;5033503;28;20065;-89
2022/12/08 07:34:24;;;;;;;16.65;10.90;;;;;;;;;;5034064;28;20063;-89
2022/12/08 07:36:51;;;;;;;14.32;11.80;;;;;;;;;;5034629;28;20046;-89
2022/12/08 07:39:18;;;;;;;13.95;10.65;;;;;;;;;;5034382;28;20057;-89
2022/12/08 07:41:46;;;;;;;14.23;11.45;;;;;;;;;;5034404;28;20409;-89
2022/12/08 07:44:13;;;;;;;15.02;10.63;;;;;;;;;;5033357;28;20072;-89
2022/12/08 07:46:40;;;;;;;15.20;11.57;;;;;;;;;;5033888;28;20494;-89
2022/12/08 07:49:08;;;;;;;14.73;10.35;;;;;;;;;;5033259;28;20042;-89
2022/12/08 07:51:35;;;;;;;16.20;10.88;;;;;;;;;;5033268;28;20414;-89
2022/12/08 07:54:02;;;;;;;14.65;11.05;;;;;;;;;;5033176;28;20046;-89
2022/12/08 07:56:29;;;;;;;14.82;10.55;;;;;;;;;;5034103;28;20053;-89
2022/12/08 07:58:56;;;;;;;14.18;10.45;;;;;;;;;;5033279;28;20053;-88
2022/12/08 08:01:25;;;;;;;11.43;9.00;;;;;;;;;;5033977;28;20395;-88
2022/12/08 08:03:54;;;;;;;13.10;8.93;;;;;;;;;;5033132;28;20494;-88
2022/12/08 08:06:21;;;;;;;12.40;10.27;;;;;;;;;;5032904;28;20486;-89
2022/12/08 08:08:48;;;;;;;13.60;10.70;;;;;;;;;;5033846;28;20441;-88
2022/12/08 08:11:16;;;;;;;14.73;9.80;;;;;;;;;;5033775;28;20050;-88
2022/12/08 08:13:48;;;;;;;10.80;9.10;;;;;;;;;;5032899;28;20080;-89
2022/12/08 08:16:15;;;;;;;15.30;9.40;;;;;;;;;;5032529;28;20076;-88
2022/12/08 08:18:42;;;;;;;12.95;9.30;;;;;;;;;;5032859;28;20049;-88
2022/12/08 08:21:09;;;;;;;12.88;9.00;;;;;;;;;;5032899;28;20509;-88
2022/12/08 08:23:57;;;;;;;11.10;8.13;;;;;;;;;;5032617;28;20077;-88
2022/12/08 08:26:24;;;;;;;8.55;7.63;;;;;;;;;;5033612;28;20077;-88
2022/12/08 08:28:51;;;;;;;8.95;7.80;;;;;;;;;;5032605;28;20041;-88
2022/12/08 08:31:23;;;;;;;8.10;7.25;;;;;;;;;;5032716;28;20150;-88
2022/12/08 08:33:51;;;;;;;13.02;7.82;;;;;;;;;;5032761;28;20132;-89
2022/12/08 08:36:18;;;;;;;9.65;7.60;;;;;;;;;;5032413;28;20059;-89
2022/12/08 08:38:45;;;;;;;10.00;7.50;;;;;;;;;;5032600;28;20080;-88
2022/12/08 08:41:12;;;;;;;14.82;7.70;;;;;;;;;;5032786;28;20148;-88
2022/12/08 08:43:39;;;;;;;10.73;7.20;;;;;;;;;;5033444;28;20042;-89
2022/12/08 08:46:07;;;;;;;8.70;7.22;;;;;;;;;;5032281;28;20128;-88
2022/12/08 08:48:35;;;;;;;8.00;6.90;;;;;;;;;;5032552;28;20095;-88
2022/12/08 08:51:09;;;;;;;10.25;6.75;;;;;;;;;;5032266;28;20054;-88
2022/12/08 08:53:36;;;;;;;8.68;7.45;;;;;;;;;;5033513;28;20537;-88
2022/12/08 08:56:08;;;;;;;7.72;6.30;;;;;;;;;;5032962;28;20064;-88
2022/12/08 08:58:35;;;;;;;7.30;6.60;;;;;;;;;;5036581;28;20049;-88
2022/12/08 09:01:03;;;;;;;8.48;6.30;;;;;;;;;;5037322;28;20058;-88
2022/12/08 09:03:30;;;;;;;10.23;6.57;;;;;;;;;;5039012;28;20049;-88
2022/12/08 09:05:57;;;;;;;7.28;6.35;;;;;;;;;;5037527;28;20045;-88
2022/12/08 09:08:25;;;;;;;8.50;7.05;;;;;;;;;;5037829;28;20344;-88
2022/12/08 09:10:53;;;;;;;8.43;6.53;;;;;;;;;;5037642;28;20053;-87
2022/12/08 09:13:21;;;;;;;8.98;6.38;;;;;;;;;;5039089;28;20060;-88
2022/12/08 09:15:48;;;;;;;7.97;6.63;;;;;;;;;;5038058;28;20045;-88
2022/12/08 09:18:15;;;;;;;8.68;5.72;;;;;;;;;;5039014;28;20068;-88
2022/12/08 09:20:43;;;;;;;10.43;6.30;;;;;;;;;;5037573;28;20140;-89
2022/12/08 09:23:10;;;;;;;7.35;6.60;;;;;;;;;;5035653;28;20053;-87
2022/12/08 09:25:37;;;;;;;7.60;6.03;;;;;;;;;;5035620;28;20056;-88
2022/12/08 09:28:04;;;;;;;8.73;6.13;;;;;;;;;;5036066;28;20082;-87
2022/12/08 09:30:31;;;;;;;7.55;6.70;;;;;;;;;;5036623;28;20505;-88
2022/12/08 09:32:59;;;;;;;9.82;6.60;;;;;;;;;;5035801;28;20056;-88
2022/12/08 09:35:26;;;;;;;10.18;6.75;;;;;;;;;;5035977;28;20405;-88
2022/12/08 09:37:53;;;;;;;8.25;6.68;;;;;;;;;;5035780;28;20071;-88
2022/12/08 09:40:22;;;;;;;8.30;7.03;;;;;;;;;;5035873;28;20061;-87
2022/12/08 09:43:03;;;;;;;7.50;6.32;;;;;;;;;;5035617;28;20049;-88
2022/12/08 09:45:33;;;;;;;9.18;7.85;;;;;;;;;;5035592;28;20046;-88
2022/12/08 09:48:10;;;;;;;8.68;7.18;;;;;;;;;;5035771;28;20049;-89
2022/12/08 09:50:44;;;;;;;8.57;7.40;;;;;;;;;;5035812;28;20410;-88
2022/12/08 09:53:14;;;;;;;7.65;6.85;;;;;;;;;;5035695;28;20477;-88
2022/12/08 09:55:49;;;;;;;7.05;6.20;;;;;;;;;;5035810;28;20441;-88
2022/12/08 09:58:28;;;;;;;9.35;7.13;;;;;;;;;;5035745;28;20057;-88
2022/12/08 10:00:55;;;;;;;9.52;6.95;;;;;;;;;;5035222;28;20046;-88
2022/12/08 10:03:26;;;;;;;11.27;6.82;;;;;;;;;;5035479;28;20053;-88
2022/12/08 10:06:12;;;;;;;8.85;7.10;;;;;;;;;;5035524;28;20057;-88
2022/12/08 10:08:47;;;;;;;10.25;7.85;;;;;;;;;;5035312;28;20053;-88
2022/12/08 10:11:18;;;;;;;8.68;6.20;;;;;;;;;;5035620;28;20053;-88
2022/12/08 10:13:52;;;;;;;9.18;6.85;;;;;;;;;;5035605;28;20060;-88
2022/12/08 10:16:27;;;;;;;12.48;8.68;;;;;;;;;;5035473;28;20068;-88
2022/12/08 10:19:15;;;;;;;9.00;7.28;;;;;;;;;;5035062;28;20560;-87
2022/12/08 10:21:42;;;;;;;11.70;6.40;;;;;;;;;;5035114;28;20049;-87
2022/12/08 10:24:15;;;;;;;10.27;7.15;;;;;;;;;;5034919;28;20060;-88
2022/12/08 10:26:42;;;;;;;10.85;7.20;;;;;;;;;;5035012;28;20441;-88
2022/12/08 10:29:12;;;;;;;10.80;7.10;;;;;;;;;;5035053;28;20050;-88
2022/12/08 10:31:39;;;;;;;8.93;5.70;;;;;;;;;;5034960;28;20136;-88
2022/12/08 10:34:14;;;;;;;8.00;6.25;;;;;;;;;;5034746;28;20051;-88
2022/12/08 10:36:51;;;;;;;7.85;6.47;;;;;;;;;;5034623;28;20124;-88
2022/12/08 10:39:35;;;;;;;7.97;6.65;;;;;;;;;;5034217;28;20053;-88
2022/12/08 10:42:02;;;;;;;8.55;5.97;;;;;;;;;;5034892;28;20064;-88
2022/12/08 10:44:29;;;;;;;6.57;5.68;;;;;;;;;;5034608;28;20056;-88
2022/12/08 10:46:57;;;;;;;6.10;5.50;;;;;;;;;;5034435;28;20050;-88
2022/12/08 10:49:26;;;;;;;5.88;5.22;;;;;;;;;;5034436;28;20061;-88
2022/12/08 10:51:53;;;;;;;8.18;4.85;;;;;;;;;;5034601;28;20049;-88
2022/12/08 10:54:36;;;;;;;5.47;4.90;;;;;;;;;;5034940;28;20046;-89
2022/12/08 10:57:03;;;;;;;5.28;4.75;;;;;;;;;;5035036;28;20136;-87
2022/12/08 10:59:32;;;;;;;9.30;4.55;;;;;;;;;;5034608;28;20056;-88
2022/12/08 11:02:00;;;;;;;5.10;4.60;;;;;;;;;;5034238;28;20045;-87
2022/12/08 11:04:30;;;;;;;7.43;4.45;;;;;;;;;;5034043;28;20547;-88
2022/12/08 11:07:00;;;;;;;5.15;4.75;;;;;;;;;;5033993;28;20069;-88
2022/12/08 11:09:35;;;;;;;4.40;4.00;;;;;;;;;;5033947;28;20109;-88
2022/12/08 11:12:12;;;;;;;6.72;4.68;;;;;;;;;;5034008;28;20067;-88
2022/12/08 11:14:43;;;;;;;4.13;3.83;;;;;;;;;;5034107;28;20052;-88
2022/12/08 11:17:13;;;;;;;4.88;3.88;;;;;;;;;;5033495;28;20073;-87
2022/12/08 11:19:42;;;;;;;3.83;3.50;;;;;;;;;;5033596;28;20049;-87
2022/12/08 11:22:23;;;;;;;5.05;3.72;;;;;;;;;;5033261;28;20486;-87
2022/12/08 11:25:03;;;;;;;4.22;3.92;;;;;;;;;;5033298;28;20060;-87
2022/12/08 11:27:32;;;;;;;5.07;4.28;;;;;;;;;;5033595;28;20053;-87
2022/12/08 11:30:00;;;;;;;4.20;3.90;;;;;;;;;;5033738;28;20049;-86
2022/12/08 11:32:28;;;;;;;4.65;4.10;;;;;;;;;;5032814;28;20061;-85
2022/12/08 11:34:58;;;;;;;4.22;3.83;;;;;;;;;;5033507;28;20417;-87
2022/12/08 11:37:28;;;;;;;5.72;4.40;;;;;;;;;;5033431;28;20224;-88
2022/12/08 11:40:04;;;;;;;4.30;3.90;;;;;;;;;;5033597;28;20504;-88
2022/12/08 11:42:35;;;;;;;4.28;3.88;;;;;;;;;;5033231;28;20049;-87
2022/12/08 11:45:06;;;;;;;4.45;4.05;;;;;;;;;;5032998;28;20072;-91
2022/12/08 11:47:36;;;;;;;5.03;3.70;;;;;;;;;;5033003;28;20053;-86
2022/12/08 11:50:16;;;;;;;3.58;3.38;;;;;;;;;;5033165;28;20045;-88
2022/12/08 11:52:47;;;;;;;4.03;3.67;;;;;;;;;;5033233;28;20420;-87
2022/12/08 11:55:26;;;;;;;4.15;3.85;;;;;;;;;;5033022;28;20063;-88
2022/12/08 11:57:54;;;;;;;4.13;3.83;;;;;;;;;;5034039;28;20148;-87
2022/12/08 12:00:21;;;;;;;3.42;3.22;;;;;;;;;;5034048;28;20188;-86
2022/12/08 12:02:51;;;;;;;3.60;3.38;;;;;;;;;;5032805;28;20060;-86
2022/12/08 12:05:42;;;;;;;3.50;3.20;;;;;;;;;;5032716;28;20092;-86
2022/12/08 12:08:36;;;;;;;3.35;3.03;;;;;;;;;;5032764;28;20088;-87
2022/12/08 12:12:12;;;;;;;3.70;3.40;;;;;;;;;;5033623;28;20405;-88
2022/12/08 12:14:20;;;;;;;3.25;3.05;;;;;;;;;;5033735;28;20042;-87
2022/12/08 12:17:00;;;;;;;3.13;2.92;;;;;;;;;;5032797;28;20489;-90
2022/12/08 12:19:29;;;;;;;3.45;3.15;;;;;;;;;;5032876;28;20140;-87
2022/12/08 12:21:57;;;;;;;3.72;3.42;;;;;;;;;;5032867;28;20504;-86
2022/12/08 12:24:31;;;;;;;3.35;3.15;;;;;;;;;;5033545;28;20057;-88
2022/12/08 12:27:05;;;;;;;3.22;3.00;;;;;;;;;;5032669;28;20045;-88
2022/12/08 12:29:35;;;;;;;3.40;3.10;;;;;;;;;;5032730;28;20057;-87
2022/12/08 12:32:04;;;;;;;2.67;2.50;;;;;;;;;;5031876;28;20045;-87
2022/12/08 12:34:32;;;;;;;3.97;2.80;;;;;;;;;;5033553;28;20065;-88
2022/12/08 12:37:11;;;;;;;3.08;2.88;;;;;;;;;;5032659;28;20045;-87
2022/12/08 12:39:56;;;;;;;5.40;3.45;;;;;;;;;;5032657;28;20052;-89
2022/12/08 12:42:36;;;;;;;3.05;2.85;;;;;;;;;;5032692;28;20505;-88
2022/12/08 12:45:24;;;;;;;2.95;2.75;;;;;;;;;;5032595;28;20051;-87
2022/12/08 12:48:00;;;;;;;3.83;3.50;;;;;;;;;;5032395;28;20052;-87
2022/12/08 12:50:33;;;;;;;3.00;2.80;;;;;;;;;;5032283;28;20585;-87
2022/12/08 12:53:01;;;;;;;;;;;;;;;;;;5033478;28;20052;-88
2022/12/08 12:55:57;;;;;;;2.83;2.72;;;;;;;;;;5049310;28;19935;-88
2022/12/08 12:58:30;;;;;;;3.45;3.15;;;;;;;;;;5032625;28;20050;-88
2022/12/08 13:01:12;;;;;;;4.35;3.20;;;;;;;;;;5031012;28;20075;-88
2022/12/08 13:03:44;;;;;;;3.42;3.13;;;;;;;;;;5031762;28;20205;-87
2022/12/08 13:06:12;;;;;;;3.08;2.88;;;;;;;;;;5032039;28;20060;-87
2022/12/08 13:08:49;;;;;;;3.45;3.15;;;;;;;;;;5031312;28;20046;-87
2022/12/08 13:11:16;;;;;;;3.00;2.80;;;;;;;;;;5031711;28;20050;-87
2022/12/08 13:13:57;;;;;;;3.15;2.90;;;;;;;;;;5031724;28;20060;-88
2022/12/08 13:16:25;;;;;;;3.45;3.15;;;;;;;;;;5031352;28;20049;-87
2022/12/08 13:19:03;;;;;;;3.47;3.03;;;;;;;;;;5031860;28;20541;-87
2022/12/08 13:21:35;;;;;;;3.55;3.25;;;;;;;;;;5031752;28;20505;-88
2022/12/08 13:24:12;;;;;;;4.53;3.33;;;;;;;;;;5031343;28;20060;-89
2022/12/08 13:26:49;;;;;;;5.32;3.25;;;;;;;;;;5031739;28;20057;-88
2022/12/08 13:29:18;;;;;;;4.88;2.85;;;;;;;;;;5031834;28;20160;-90
2022/12/08 13:31:47;;;;;;;2.83;2.63;;;;;;;;;;5032748;28;20151;-88
2022/12/08 13:34:40;;;;;;;2.70;2.50;;;;;;;;;;5031056;28;20505;-89
2022/12/08 13:37:10;;;;;;;3.78;2.50;;;;;;;;;;5031246;28;20092;-90
2022/12/08 13:39:39;;;;;;;2.95;2.70;;;;;;;;;;5031809;28;20053;-87
2022/12/08 13:42:12;;;;;;;2.88;2.67;;;;;;;;;;5031418;28;20050;-87
2022/12/08 13:44:43;;;;;;;2.55;2.40;;;;;;;;;;5033270;28;20077;-87
2022/12/08 13:47:35;;;;;;;2.95;2.75;;;;;;;;;;5034911;28;20058;-87
2022/12/08 13:50:39;;;;;;;3.78;2.92;;;;;;;;;;5035140;28;20056;-87
2022/12/08 13:53:28;;;;;;;2.95;2.65;;;;;;;;;;5035146;28;20056;-87
2022/12/08 13:56:15;;;;;;;2.25;2.05;;;;;;;;;;5034687;28;20498;-88
2022/12/08 13:59:21;;;;;;;2.83;2.63;;;;;;;;;;5034652;28;20058;-88
2022/12/08 14:01:49;;;;;;;2.35;2.25;;;;;;;;;;5034464;28;20077;-87
2022/12/08 14:04:18;;;;;;;2.28;2.17;;;;;;;;;;5034376;28;20059;-88
2022/12/08 14:07:06;;;;;;;2.30;2.20;;;;;;;;;;5034773;28;20072;-87
2022/12/08 14:09:34;;;;;;;2.20;2.10;;;;;;;;;;5034130;28;20417;-87
2022/12/08 14:12:02;;;;;;;2.63;2.50;;;;;;;;;;5034504;28;20054;-87
2022/12/08 14:14:34;;;;;;;2.63;2.42;;;;;;;;;;5034546;28;20054;-87
2022/12/08 14:17:23;;;;;;;2.78;2.17;;;;;;;;;;5034480;28;20060;-87
2022/12/08 14:20:09;;;;;;;2.90;2.65;;;;;;;;;;5034362;28;20052;-87
2022/12/08 14:22:38;;;;;;;2.70;2.50;;;;;;;;;;5034297;28;20049;-87
2022/12/08 14:25:07;;;;;;;2.38;2.28;;;;;;;;;;5034143;28;20140;-88
2022/12/08 14:27:35;;;;;;;2.58;2.38;;;;;;;;;;5034807;28;20053;-88
2022/12/08 14:30:06;;;;;;;2.80;2.67;;;;;;;;;;5034540;28;20065;-87
2022/12/08 14:32:33;;;;;;;2.88;2.30;;;;;;;;;;5034051;28;20128;-87
2022/12/08 14:35:06;;;;;;;2.30;2.20;;;;;;;;;;5035082;28;20440;-88
2022/12/08 14:37:34;;;;;;;;;;;;;;;;;;5034185;28;20057;-88
2022/12/08 14:40:06;;;;;;;3.60;3.38;;;;;;;;;;5033865;28;19921;-87
2022/12/08 14:42:42;;;;;;;3.65;3.40;;;;;;;;;;5034763;28;20050;-87
2022/12/08 14:45:11;;;;;;;3.85;2.97;;;;;;;;;;5034560;28;20125;-88
2022/12/08 14:47:39;;;;;;;3.28;3.08;;;;;;;;;;5033475;28;20053;-86
2022/12/08 14:50:26;;;;;;;2.75;2.55;;;;;;;;;;5034365;28;20063;-87
2022/12/08 14:52:53;;;;;;;2.97;2.78;;;;;;;;;;5027099;28;20061;-87
2022/12/08 14:55:21;;;;;;;2.90;2.70;;;;;;;;;;5032621;28;20059;-88
2022/12/08 14:57:48;;;;;;;4.00;3.70;;;;;;;;;;5034301;28;20041;-87
2022/12/08 15:00:19;;;;;;;3.10;2.90;;;;;;;;;;5033451;28;20140;-87
2022/12/08 15:02:47;;;;;;;3.85;3.45;;;;;;;;;;5033364;28;20056;-87